Ashby, MN (56309)

10:07 AM CDT on July 11, 2014 (GMT -0500)
Elbow Lake (KY63) Elev 1204 ft | 45.99 °N, 95.99 °W | Change Station

Current weather conditions updated 4 minutes ago

Overcast
Overcast
73 °F
Feels Like 73 °F
N
10
Wind Variable Wind from South

Today is forecast to be Warmer than yesterday.

Today
High -- | Low -- °F
--% Chance of Precip.
Yesterday
High -- | Low -- °F
Precip. -- in
5:43 AM 9:13 PM
Waxing Gibbous, 99% visible
Pressure 29.87 in
Visibility 10.0 miles
Clouds Overcast 2000 ft
Dew Point 70 °F
Humidity 88%
Rainfall 0.00 in
Snow Depth Not available.
UV 2 out of 12
Pollen 4.00 out of 12
Air Quality Not available.
Flu Activity Sporadic
METAR KY63 111503Z AUTO 19009KT 10SM OVC020 23/21 A2987 RMK AO2

More Conditions Fewer Conditions

Pressure 29.87 in
Visibility 10.0 miles
Clouds Overcast 2000 ft
Dew Point 70 °F
Humidity 88%
Rainfall 0.00 in
Snow Depth Not available.
UV 2 out of 12
Pollen 4.00 out of 12
Air Quality Not available.
Flu Activity Sporadic
METAR KY63 111503Z AUTO 19009KT 10SM OVC020 23/21 A2987 RMK AO2

More Conditions Fewer Conditions

10-Day Weather Forecast

Almanac

Astronomy

Jul. 11, 2014 Rise Set
Actual Time 5:43 AM CDT 9:13 PM CDT
Civil Twilight 5:05 AM CDT 9:51 PM CDT
Nautical Twilight 4:16 AM CDT 10:40 PM CDT
Astronomical Twilight 3:10 AM CDT 11:45 PM CDT
Moon 8:20 PM CDT 5:00 AM CDT
Length of Visible Light 16h 45m
Length of Day
15h 30m
Tomorrow will be 1m 32s shorter.
Waxing Gibbous, 99% of the Moon is Illuminated
Today
Waxing Gibbous
Jul 12
Full
Jul 18
Last Quarter
Jul 26
New
Aug 3
First Quarter

Today's Extremes

State Highs State Lows

Community

WunderPhotos

Upload Photos

1,732,497 photos uploaded!

WunderBlogs® & News

Nearby

Snow Depth

Station Depth Elevation
No new snow has been reported.

Earthquake Activity

City Distance Mag. Time & Date
No recent earthquake activity has been reported nearby.
Minimum magnitude displayed is 2.5.

Coastal Water Temperatures

Place Temperature
No Stations Reporting

Nearby Weather Stations

Station Location Temp. Heat Index Dew Point Humidity Wind Precip. Elev Updated Type
Gardonville, Brandon, MN 71.7 °F - 68 °F 89% SW  at  11.0 mph 0.00 in / hr 1411 ft 10:07 AM CDT Rapid Fire
Hoffman MN, Hoffman, MN 75.9 °F 76 °F 71 °F 86% South  at  3.1 mph 0.00 in / hr 1240 ft 10:06 AM CDT Normal

Show More Stations Show Fewer Stations